^^
Datos históricos de la estación: Murcia-Puente Tocinos
Diario Informe para Septiembre 20, 2021 Unidades:  Métrico    Ingés   Ambas
Diario Semanal Mensual Anual
  Máxima: Mínima: Promedio:
Temperatura: 28.5 °C 20.8 °C 23.9 °C
Punto de rocio: 18.4 °C 15.4 °C 16.9 °C
Humedad: 75% 49.5% 66%
Velocidad viento: 15.6km/h 0km/h 7.1km/h
Racha viento: 29.6km/h - -
Viento- - SSE
Presión: 1018.1 hPa 1014.4 hPa -
Precipitación: 0.0 mm    
 
 
Tabla de datos para Septiembre 20, 2021
Hora Temperatura Punto de rocio Presión Viento Velocidad viento Racha viento Humedad Intensidad lluvia(por hora) Nubes
00:04 22.6 °C 16.8 °C 1017.6 hPa NO 4.7 km/h 5.8 km/h 70% 0.0 mm
00:09 22.6 °C 16.9 °C 1017.6 hPa NO 4.4 km/h 5.8 km/h 70.3% 0.0 mm
00:14 22.5 °C 16.8 °C 1017.6 hPa NO 3.9 km/h 5.8 km/h 70% 0.0 mm
00:19 22.5 °C 16.8 °C 1017.6 hPa NNO 3.5 km/h 3.7 km/h 70% 0.0 mm
00:24 22.5 °C 16.8 °C 1017.6 hPa NNO 2.9 km/h 5.6 km/h 70% 0.0 mm
00:29 22.4 °C 16.7 °C 1017.6 hPa NNO 1.8 km/h 3.7 km/h 70.2% 0.0 mm
00:34 22.4 °C 16.9 °C 1017.7 hPa Calm   4.7 km/h 71% 0.0 mm
00:39 22.4 °C 16.9 °C 1017.7 hPa NO 0.5 km/h 3.9 km/h 71% 0.0 mm
00:44 22.4 °C 16.8 °C 1017.7 hPa NO 2.3 km/h 4.7 km/h 70.6% 0.0 mm
00:49 22.4 °C 16.7 °C 1017.7 hPa Oeste 2.6 km/h 7.4 km/h 70% 0.0 mm
00:54 22.4 °C 16.7 °C 1017.7 hPa Oeste 3.2 km/h 7.4 km/h 70% 0.0 mm
00:59 22.3 °C 16.6 °C 1017.7 hPa Oeste 3.8 km/h 7.4 km/h 70% 0.0 mm
01:04 22.3 °C 16.6 °C 1017.7 hPa ONO 4.7 km/h 7.4 km/h 70% 0.0 mm
01:09 22.3 °C 16.6 °C 1017.7 hPa Oeste 4.7 km/h 8.7 km/h 70% 0.0 mm
01:14 22.2 °C 16.4 °C 1017.7 hPa ONO 4.7 km/h 9.3 km/h 70% 0.0 mm
01:19 22.1 °C 16.4 °C 1017.7 hPa Oeste 4.8 km/h 7.4 km/h 70% 0.0 mm
01:24 22.1 °C 16.4 °C 1017.7 hPa OSO 5 km/h 4.7 km/h 70% 0.0 mm
01:29 22.1 °C 16.4 °C 1017.7 hPa OSO 4.2 km/h 4.7 km/h 70% 0.0 mm
01:34 22.1 °C 16.4 °C 1017.7 hPa OSO 2.9 km/h 5 km/h 70% 0.0 mm
01:39 22.2 °C 16.4 °C 1017.5 hPa OSO 2.9 km/h 5.8 km/h 70% 0.0 mm
01:44 22.2 °C 16.4 °C 1017.5 hPa OSO 2.9 km/h 4.7 km/h 70% 0.0 mm
01:49 22.2 °C 16.3 °C 1017.6 hPa OSO 2.7 km/h 3.9 km/h 69.4% 0.0 mm
01:54 22.2 °C 16.2 °C 1017.6 hPa OSO 2.3 km/h 4.7 km/h 69% 0.0 mm
01:59 22.2 °C 16.1 °C 1017.6 hPa OSO 2.3 km/h 4.7 km/h 68.6% 0.0 mm
02:04 22.2 °C 16.2 °C 1017.6 hPa OSO 2.3 km/h 5 km/h 68.7% 0.0 mm
02:09 22.2 °C 16 °C 1017.5 hPa OSO 2.5 km/h 7.4 km/h 68.1% 0.0 mm
02:14 22.1 °C 16 °C 1017.5 hPa Oeste 2.9 km/h 7.4 km/h 68.5% 0.0 mm
02:19 22.1 °C 16.2 °C 1017.5 hPa NNO 3.2 km/h 7.4 km/h 69% 0.0 mm
02:24 22.1 °C 16.2 °C 1017.4 hPa NNO 3.9 km/h 5.8 km/h 69% 0.0 mm
02:29 22 °C 15.9 °C 1017.4 hPa NO 3.5 km/h 5.6 km/h 68.1% 0.0 mm
02:34 21.9 °C 15.7 °C 1017.4 hPa NO 2.9 km/h 4.7 km/h 68% 0.0 mm
02:39 21.9 °C 15.7 °C 1017.2 hPa NO 2.9 km/h 3.9 km/h 68% 0.0 mm
02:44 21.9 °C 15.7 °C 1017.2 hPa NO 2.9 km/h 4.7 km/h 68% 0.0 mm
02:49 21.8 °C 15.7 °C 1017.2 hPa NO 2.6 km/h 3.7 km/h 68% 0.0 mm
02:54 21.8 °C 15.6 °C 1017.1 hPa NO 2.3 km/h 3.7 km/h 68% 0.0 mm
02:59 21.8 °C 15.7 °C 1017.1 hPa NO 1.4 km/h 4.7 km/h 68.3% 0.0 mm
03:04 21.8 °C 16.3 °C 1017.1 hPa Calm   5.8 km/h 70.8% 0.0 mm
03:09 21.8 °C 16.6 °C 1017.0 hPa Este 1.2 km/h 7.4 km/h 72.3% 0.0 mm
03:14 21.8 °C 16.7 °C 1017.0 hPa Este 3.2 km/h 5.8 km/h 73% 0.0 mm
03:19 21.8 °C 16.8 °C 1017.0 hPa Este 3.1 km/h 5.8 km/h 73.5% 0.0 mm
03:24 21.7 °C 16.9 °C 1016.8 hPa ESE 2.9 km/h 7.4 km/h 74% 0.0 mm
03:29 21.7 °C 16.9 °C 1016.8 hPa SE 3.3 km/h 6.4 km/h 74% 0.0 mm
03:34 21.6 °C 16.8 °C 1016.8 hPa SE 3.9 km/h 8.4 km/h 74% 0.0 mm
03:39 21.6 °C 16.8 °C 1016.7 hPa SE 4.2 km/h 9.3 km/h 74% 0.0 mm
03:44 21.6 °C 16.8 °C 1016.7 hPa SSE 4.7 km/h 9.5 km/h 74% 0.0 mm
03:49 21.5 °C 16.7 °C 1016.7 hPa Sur 5.3 km/h 10 km/h 74% 0.0 mm
03:54 21.5 °C 16.6 °C 1016.7 hPa Sur 6.4 km/h 8.4 km/h 73.8% 0.0 mm
03:59 21.5 °C 16.4 °C 1016.7 hPa SO 5.9 km/h 8.7 km/h 73% 0.0 mm
04:04 21.5 °C 16.4 °C 1016.7 hPa SO 5 km/h 9.5 km/h 73% 0.0 mm
04:09 21.5 °C 16.4 °C 1016.7 hPa SO 5 km/h 7.6 km/h 73% 0.0 mm
04:14 21.5 °C 16.4 °C 1016.7 hPa SO 5 km/h 8.4 km/h 73% 0.0 mm
04:19 21.5 °C 16.4 °C 1016.7 hPa SO 5 km/h 7.6 km/h 73% 0.0 mm
04:24 21.5 °C 16.4 °C 1016.7 hPa OSO 5 km/h 7.4 km/h 73% 0.0 mm
04:29 21.4 °C 16.3 °C 1016.7 hPa OSO 4.9 km/h 8.4 km/h 73% 0.0 mm
04:34 21.4 °C 16.3 °C 1016.8 hPa OSO 4.7 km/h 7.4 km/h 73% 0.0 mm
04:39 21.3 °C 16.3 °C 1016.8 hPa SO 4.7 km/h 5.8 km/h 73.1% 0.0 mm
04:44 21.3 °C 16.3 °C 1016.8 hPa SSO 4.7 km/h 7.6 km/h 73.3% 0.0 mm
04:49 21.3 °C 16.3 °C 1016.8 hPa SSO 4.7 km/h 8.4 km/h 73% 0.0 mm
04:54 21.3 °C 16.3 °C 1016.8 hPa SSO 4.7 km/h 8.4 km/h 73% 0.0 mm
04:59 21.4 °C 16.3 °C 1016.8 hPa SSO 5.1 km/h 9.3 km/h 73% 0.0 mm
05:04 21.4 °C 16.3 °C 1016.8 hPa SSO 5.8 km/h 9.3 km/h 73% 0.0 mm
05:09 21.4 °C 16.3 °C 1016.8 hPa SO 5.5 km/h 8.4 km/h 72.6% 0.0 mm
05:14 21.5 °C 16.2 °C 1016.8 hPa SO 5 km/h 9.5 km/h 72% 0.0 mm
05:19 21.5 °C 16 °C 1016.9 hPa SO 5 km/h 10 km/h 71.1% 0.0 mm
05:24 21.6 °C 16.1 °C 1016.9 hPa SO 5 km/h 9.3 km/h 71% 0.0 mm
05:29 21.6 °C 16.1 °C 1016.9 hPa SO 5 km/h 10 km/h 71% 0.0 mm
05:34 21.6 °C 16.1 °C 1016.9 hPa SSO 5 km/h 11.1 km/h 71% 0.0 mm
05:39 21.5 °C 16 °C 1016.8 hPa Sur 5.7 km/h 11.1 km/h 71.1% 0.0 mm
05:44 21.4 °C 16.1 °C 1016.8 hPa SSO 6.9 km/h 11.9 km/h 72% 0.0 mm
05:49 21.3 °C 16.1 °C 1016.8 hPa SSO 6.9 km/h 9.5 km/h 72% 0.0 mm
05:54 21.2 °C 16 °C 1016.8 hPa SSO 6.9 km/h 11.9 km/h 72% 0.0 mm
05:59 21.2 °C 16.1 °C 1016.8 hPa SO 6.9 km/h 9.5 km/h 72.9% 0.0 mm
06:04 21.2 °C 16 °C 1016.8 hPa OSO 6.9 km/h 9.5 km/h 72.3% 0.0 mm
06:09 21.1 °C 15.8 °C 1016.8 hPa SO 6.7 km/h 9.5 km/h 72% 0.0 mm
06:14 21.1 °C 15.8 °C 1016.8 hPa SO 6.4 km/h 9.5 km/h 72% 0.0 mm
06:19 21.1 °C 16 °C 1016.8 hPa OSO 6.4 km/h 9.3 km/h 72.7% 0.0 mm
06:24 21.1 °C 16.1 °C 1016.8 hPa OSO 6.4 km/h 9.3 km/h 73% 0.0 mm
06:29 21.1 °C 16.1 °C 1016.8 hPa SO 5.9 km/h 9.3 km/h 73% 0.0 mm
06:34 21.1 °C 16.1 °C 1016.8 hPa SO 5 km/h 7.6 km/h 73% 0.0 mm
06:39 21.1 °C 16.1 °C 1016.8 hPa OSO 5 km/h 8.4 km/h 73% 0.0 mm
06:44 21 °C 16 °C 1016.8 hPa SO 5 km/h 9.3 km/h 72.9% 0.0 mm
06:49 21 °C 15.8 °C 1016.8 hPa SO 5.3 km/h 10 km/h 72% 0.0 mm
06:54 20.9 °C 15.7 °C 1016.8 hPa SO 5.8 km/h 9.5 km/h 72% 0.0 mm
06:59 20.9 °C 15.7 °C 1016.8 hPa SO 5.8 km/h 7.6 km/h 72% 0.0 mm
07:04 20.9 °C 15.7 °C 1016.8 hPa SSO 5.8 km/h 7.4 km/h 72% 0.0 mm
07:09 20.9 °C 15.7 °C 1016.7 hPa Sur 5.4 km/h 7.6 km/h 72.4% 0.0 mm
07:14 20.9 °C 15.9 °C 1016.7 hPa Sur 4.7 km/h 10 km/h 73% 0.0 mm
07:19 20.8 °C 15.8 °C 1016.8 hPa SSO 5.3 km/h 11.1 km/h 72.9% 0.0 mm
07:24 20.8 °C 15.6 °C 1016.8 hPa SSO 6.4 km/h 13 km/h 72% 0.0 mm
07:29 20.8 °C 15.6 °C 1016.8 hPa SO 6.6 km/h 10 km/h 72% 0.0 mm
07:34 20.8 °C 15.6 °C 1016.9 hPa SO 6.9 km/h 9.5 km/h 72% 0.0 mm
07:39 20.8 °C 15.6 °C 1016.9 hPa SO 6.1 km/h 10.3 km/h 72.1% 0.0 mm
07:44 20.9 °C 15.9 °C 1016.9 hPa OSO 4.7 km/h 11.1 km/h 73% 0.0 mm
07:49 20.9 °C 15.9 °C 1017.0 hPa SO 5.3 km/h 11.9 km/h 73% 0.0 mm
07:54 20.9 °C 15.9 °C 1017.0 hPa SO 6.4 km/h 11.1 km/h 73% 0.0 mm
07:59 20.9 °C 15.9 °C 1017.0 hPa SO 6.4 km/h 11.1 km/h 73% 0.0 mm
08:04 20.9 °C 16 °C 1017.2 hPa SO 6.4 km/h 10 km/h 73.4% 0.0 mm
08:09 20.9 °C 15.9 °C 1017.2 hPa SO 5.9 km/h 9.3 km/h 73.2% 0.0 mm
08:14 20.9 °C 15.9 °C 1017.2 hPa SO 5 km/h 11.1 km/h 73% 0.0 mm
08:19 20.9 °C 15.8 °C 1017.2 hPa SO 5.3 km/h 9.3 km/h 72.6% 0.0 mm
08:24 20.9 °C 15.7 °C 1017.2 hPa SO 5.8 km/h 10 km/h 71.9% 0.0 mm
08:29 21 °C 15.5 °C 1017.2 hPa Sur 5.8 km/h 10 km/h 70.8% 0.0 mm
08:34 21 °C 15.5 °C 1017.4 hPa Sur 5.8 km/h 7.4 km/h 70.5% 0.0 mm
08:39 21.1 °C 15.6 °C 1017.4 hPa Sur 5.4 km/h 8.4 km/h 71% 0.0 mm
08:44 21.2 °C 15.7 °C 1017.4 hPa SSO 4.7 km/h 7.6 km/h 71% 0.0 mm
08:49 21.2 °C 15.6 °C 1017.4 hPa SSO 5.1 km/h 9.5 km/h 70.3% 0.0 mm
08:54 21.3 °C 15.6 °C 1017.4 hPa SO 5.8 km/h 10.3 km/h 69.9% 0.0 mm
08:59 21.3 °C 15.4 °C 1017.4 hPa SSO 5.5 km/h 11.1 km/h 69% 0.0 mm
09:04 21.4 °C 15.5 °C 1017.6 hPa SSO 5 km/h 11.1 km/h 69% 0.0 mm
09:09 21.4 °C 15.5 °C 1017.6 hPa SSO 5.7 km/h 13 km/h 68.8% 0.0 mm
09:14 21.5 °C 15.5 °C 1017.6 hPa SSO 6.9 km/h 13 km/h 69% 0.0 mm
09:19 21.6 °C 15.6 °C 1017.6 hPa SSO 6.9 km/h 11.9 km/h 68.6% 0.0 mm
09:24 21.7 °C 15.5 °C 1017.5 hPa Sur 6.9 km/h 13 km/h 68% 0.0 mm
09:29 21.7 °C 15.6 °C 1017.5 hPa SSO 7.5 km/h 11.9 km/h 68% 0.0 mm
09:34 21.8 °C 15.6 °C 1017.7 hPa SSO 8.4 km/h 9.3 km/h 68% 0.0 mm
09:39 21.9 °C 15.6 °C 1017.7 hPa SO 7.7 km/h 9.5 km/h 67.4% 0.0 mm
09:44 22 °C 15.6 °C 1017.7 hPa SO 6.4 km/h 10 km/h 67.3% 0.0 mm
09:49 22.2 °C 15.8 °C 1017.7 hPa SSO 6.2 km/h 11.1 km/h 67% 0.0 mm
09:54 22.3 °C 15.9 °C 1017.7 hPa SSO 5.8 km/h 10 km/h 67% 0.0 mm
09:59 22.4 °C 15.9 °C 1017.7 hPa SO 6.3 km/h 12.2 km/h 67% 0.0 mm
10:04 22.5 °C 16 °C 1018.0 hPa OSO 6.9 km/h 13 km/h 66.9% 0.0 mm
10:09 22.6 °C 16 °C 1018.0 hPa OSO 6.9 km/h 13 km/h 66.2% 0.0 mm
10:14 22.7 °C 16 °C 1018.0 hPa OSO 6.9 km/h 10 km/h 66% 0.0 mm
10:19 22.7 °C 16 °C 1018.1 hPa SO 6.7 km/h 11.1 km/h 66.1% 0.0 mm
10:24 22.7 °C 16.2 °C 1018.1 hPa OSO 6.4 km/h 9.3 km/h 66.7% 0.0 mm
10:29 22.8 °C 16.2 °C 1018.1 hPa OSO 5.8 km/h 11.1 km/h 66.3% 0.0 mm
10:34 22.8 °C 16.1 °C 1018.1 hPa Oeste 4.7 km/h 10 km/h 66% 0.0 mm
10:39 22.9 °C 16.3 °C 1018.0 hPa OSO 5.3 km/h 9.3 km/h 66.4% 0.0 mm
10:44 23 °C 16.4 °C 1018.0 hPa Oeste 6.4 km/h 5.8 km/h 66.2% 0.0 mm
10:49 23.2 °C 16.4 °C 1018.1 hPa Oeste 5.1 km/h 7.4 km/h 65.6% 0.0 mm
10:54 23.4 °C 16.4 °C 1018.1 hPa Sur 2.9 km/h 8.7 km/h 65% 0.0 mm
10:59 23.6 °C 16.6 °C 1018.1 hPa OSO 3.6 km/h 9.3 km/h 64.7% 0.0 mm
11:04 23.7 °C 16.5 °C 1018.1 hPa SO 4.7 km/h 8.4 km/h 64% 0.0 mm
11:09 23.8 °C 16.6 °C 1018.1 hPa SSO 4.4 km/h 7.6 km/h 64% 0.0 mm
11:14 23.9 °C 16.7 °C 1018.1 hPa SSE 3.9 km/h 7.4 km/h 64% 0.0 mm
11:19 24.1 °C 16.7 °C 1018.1 hPa Oeste 3.5 km/h 7.4 km/h 63.2% 0.0 mm
11:24 24.3 °C 16.7 °C 1018.1 hPa NO 2.9 km/h 7.6 km/h 62.9% 0.0 mm
11:29 24.4 °C 16.8 °C 1018.1 hPa Oeste 3 km/h 7.4 km/h 62.8% 0.0 mm
11:34 24.5 °C 16.9 °C 1018.1 hPa SSO 3.2 km/h 6.4 km/h 62.6% 0.0 mm
11:39 24.7 °C 16.9 °C 1018.0 hPa Oeste 3.4 km/h 7.4 km/h 62% 0.0 mm
11:44 24.7 °C 17 °C 1018.0 hPa Oeste 3.9 km/h 7.6 km/h 62% 0.0 mm
11:49 24.8 °C 17 °C 1018.0 hPa North 3.6 km/h 7.6 km/h 62% 0.0 mm
11:54 25.2 °C 17.1 °C 1018.0 hPa NNE 3.2 km/h 11.1 km/h 61% 0.0 mm
11:59 25.4 °C 16.8 °C 1018.0 hPa NNO 4 km/h 11.1 km/h 59% 0.0 mm
12:04 25.5 °C 16.7 °C 1018.0 hPa ONO 5 km/h 9.3 km/h 58.4% 0.0 mm
12:09 25.7 °C 17 °C 1017.9 hPa North 4.9 km/h 9.3 km/h 58.7% 0.0 mm
12:14 25.8 °C 16.9 °C 1017.9 hPa ENE 4.7 km/h 9.5 km/h 58.2% 0.0 mm
12:19 25.9 °C 17.1 °C 1017.9 hPa SSE 4.7 km/h 7.6 km/h 58.5% 0.0 mm
12:24 26.2 °C 17.3 °C 1017.8 hPa NE 4.7 km/h 11.1 km/h 58% 0.0 mm
12:29 26.2 °C 17.2 °C 1017.8 hPa Este 5.1 km/h 16.1 km/h 58% 0.0 mm
12:34 26.1 °C 17.2 °C 1017.8 hPa ENE 5.8 km/h 16.7 km/h 58% 0.0 mm
12:39 26 °C 17 °C 1017.5 hPa ESE 6.5 km/h 13.7 km/h 57.5% 0.0 mm
12:44 26 °C 17 °C 1017.5 hPa SO 7.6 km/h 11.1 km/h 57.7% 0.0 mm
12:49 26.2 °C 17.1 °C 1017.5 hPa NE 7.1 km/h 11.1 km/h 57.5% 0.0 mm
12:54 26.3 °C 17.1 °C 1017.3 hPa North 6.4 km/h 11.9 km/h 57% 0.0 mm
12:59 26.4 °C 17.2 °C 1017.3 hPa NNO 5.8 km/h 10.3 km/h 57% 0.0 mm
13:04 26.7 °C 17.2 °C 1017.3 hPa NE 5 km/h 11.1 km/h 56% 0.0 mm
13:09 26.9 °C 17.2 °C 1017.1 hPa NNE 4.9 km/h 14 km/h 55.5% 0.0 mm
13:14 26.8 °C 17.1 °C 1017.1 hPa NE 4.7 km/h 16.1 km/h 55% 0.0 mm
13:19 26.8 °C 17.1 °C 1017.1 hPa North 5.8 km/h 13.7 km/h 55.4% 0.0 mm
13:24 26.8 °C 17.1 °C 1016.9 hPa NNE 7.6 km/h 15.6 km/h 55.5% 0.0 mm
13:29 26.8 °C 17.2 °C 1016.9 hPa North 8 km/h 14.8 km/h 55.6% 0.0 mm
13:34 26.9 °C 17.1 °C 1016.9 hPa ONO 8.7 km/h 9.5 km/h 55.2% 0.0 mm
13:39 27.1 °C 17.1 °C 1016.6 hPa NE 7.2 km/h 13 km/h 54.3% 0.0 mm
13:44 27.3 °C 17 °C 1016.6 hPa NE 4.7 km/h 11.1 km/h 53.5% 0.0 mm
13:49 27.4 °C 17 °C 1016.6 hPa NNO 5.3 km/h 10 km/h 53% 0.0 mm
13:54 27.6 °C 16.9 °C 1016.5 hPa Este 6.4 km/h 11.1 km/h 52.3% 0.0 mm
13:59 27.7 °C 16.9 °C 1016.5 hPa Este 6.4 km/h 19 km/h 51.8% 0.0 mm
14:04 27.6 °C 16.9 °C 1016.5 hPa Este 6.4 km/h 18.5 km/h 52% 0.0 mm
14:09 27.7 °C 16.9 °C 1016.3 hPa NNE 6.8 km/h 20.4 km/h 51.9% 0.0 mm
14:14 27.7 °C 16.9 °C 1016.3 hPa NNE 7.6 km/h 19 km/h 52% 0.0 mm
14:19 27.7 °C 16.9 °C 1016.3 hPa NNE 8.3 km/h 13 km/h 51.6% 0.0 mm
14:24 27.8 °C 16.8 °C 1016.1 hPa NNO 9.5 km/h 15.6 km/h 51.2% 0.0 mm
14:29 27.8 °C 16.8 °C 1016.1 hPa North 9.1 km/h 12.2 km/h 51% 0.0 mm
14:34 28 °C 16.8 °C 1016.1 hPa Este 8.4 km/h 16.7 km/h 50.7% 0.0 mm
14:39 28.2 °C 17 °C 1015.9 hPa NE 8.4 km/h 16.7 km/h 50.9% 0.0 mm
14:44 28.4 °C 17 °C 1015.9 hPa ENE 8.4 km/h 15.6 km/h 50.1% 0.0 mm
14:49 28.4 °C 16.9 °C 1015.9 hPa Este 9.1 km/h 20.4 km/h 49.8% 0.0 mm
14:54 28.3 °C 17.1 °C 1015.6 hPa NE 10.3 km/h 15.6 km/h 50.7% 0.0 mm
14:59 28.5 °C 16.9 °C 1015.6 hPa NE 11 km/h 24.1 km/h 49.5% 0.0 mm
15:04 28.2 °C 17 °C 1015.6 hPa ENE 11.9 km/h 24.1 km/h 50.7% 0.0 mm
15:09 28.3 °C 17.2 °C 1015.4 hPa NE 12.3 km/h 22.2 km/h 51% 0.0 mm
15:14 28.2 °C 17.1 °C 1015.4 hPa NE 13 km/h 24.1 km/h 51.1% 0.0 mm
15:19 28.1 °C 17.3 °C 1015.4 hPa ENE 13.3 km/h 28.2 km/h 52% 0.0 mm
15:24 28.2 °C 17.4 °C 1015.2 hPa NE 13.7 km/h 27.8 km/h 52% 0.0 mm
15:29 28.4 °C 17.5 °C 1015.2 hPa ENE 13.2 km/h 22.2 km/h 51.8% 0.0 mm
15:34 28.4 °C 17.4 °C 1015.2 hPa ENE 12.2 km/h 24.1 km/h 51.3% 0.0 mm
15:39 28.3 °C 17.3 °C 1015.2 hPa NE 12.8 km/h 24.5 km/h 51% 0.0 mm
15:44 28.2 °C 17.2 °C 1015.2 hPa NE 13.7 km/h 24.1 km/h 51.3% 0.0 mm
15:49 28.3 °C 17.4 °C 1015.2 hPa NE 13.8 km/h 25.1 km/h 51.7% 0.0 mm
15:54 28.3 °C 17.3 °C 1014.9 hPa ENE 14 km/h 25.9 km/h 51.4% 0.0 mm
15:59 28.3 °C 17.3 °C 1014.9 hPa ENE 14 km/h 22.5 km/h 51.6% 0.0 mm
16:04 28.2 °C 17.2 °C 1014.9 hPa NE 14 km/h 29.6 km/h 51.2% 0.0 mm
16:09 28 °C 17.2 °C 1014.8 hPa ENE 14 km/h 25.9 km/h 52% 0.0 mm
16:14 28 °C 17.2 °C 1014.8 hPa ENE 14 km/h 23.3 km/h 52% 0.0 mm
16:19 28.2 °C 17.3 °C 1014.8 hPa NE 13.4 km/h 24.1 km/h 51.7% 0.0 mm
16:24 28.2 °C 17.4 °C 1014.7 hPa NE 12.2 km/h 22.2 km/h 52% 0.0 mm
16:29 28.2 °C 17.4 °C 1014.7 hPa NE 12.5 km/h 27.8 km/h 51.9% 0.0 mm
16:34 28.1 °C 17.4 °C 1014.7 hPa ENE 13 km/h 22.5 km/h 52.3% 0.0 mm
16:39 28.1 °C 17.5 °C 1014.5 hPa Este 14 km/h 22.2 km/h 52.9% 0.0 mm
16:44 28.2 °C 17.5 °C 1014.5 hPa ENE 15.6 km/h 23.3 km/h 52.2% 0.0 mm
16:49 28.2 °C 17.4 °C 1014.6 hPa Este 14.2 km/h 24.1 km/h 52% 0.0 mm
16:54 28 °C 17.3 °C 1014.6 hPa NE 11.9 km/h 20.9 km/h 52.3% 0.0 mm
16:59 27.8 °C 17.5 °C 1014.6 hPa ENE 12 km/h 19 km/h 53.6% 0.0 mm
17:04 27.6 °C 17.4 °C 1014.6 hPa NE 12.2 km/h 22.5 km/h 54% 0.0 mm
17:09 27.2 °C 17.3 °C 1014.4 hPa ENE 12.5 km/h 25.9 km/h 54.6% 0.0 mm
17:14 27.1 °C 17.4 °C 1014.4 hPa Este 13 km/h 22.2 km/h 55.7% 0.0 mm
17:19 26.9 °C 17.4 °C 1014.6 hPa Este 12.7 km/h 22.2 km/h 56% 0.0 mm
17:24 26.8 °C 17.5 °C 1014.6 hPa Este 12.2 km/h 18.5 km/h 56.7% 0.0 mm
17:29 26.7 °C 17.5 °C 1014.6 hPa Este 11.8 km/h 18.5 km/h 57% 0.0 mm
17:34 26.7 °C 17.6 °C 1014.7 hPa Este 11.1 km/h 22.5 km/h 57.5% 0.0 mm
17:39 26.6 °C 17.4 °C 1014.7 hPa ESE 10.8 km/h 22.2 km/h 57.2% 0.0 mm
17:44 26.4 °C 17.2 °C 1014.7 hPa ESE 10.3 km/h 27 km/h 57% 0.0 mm
17:49 26.3 °C 17.3 °C 1014.7 hPa ESE 11.6 km/h 27.8 km/h 57.7% 0.0 mm
17:54 26.1 °C 17.3 °C 1014.5 hPa ESE 13.7 km/h 24.5 km/h 58.2% 0.0 mm
17:59 25.9 °C 17.3 °C 1014.5 hPa Este 14.1 km/h 24.1 km/h 59% 0.0 mm
18:04 25.9 °C 17.3 °C 1015.1 hPa Este 14.8 km/h 13 km/h 59% 0.0 mm
18:09 25.8 °C 17.3 °C 1015.1 hPa Este 12.9 km/h 25.9 km/h 59.1% 0.0 mm
18:14 25.7 °C 17.4 °C 1015.1 hPa Este 10 km/h 22.2 km/h 60% 0.0 mm
18:19 25.7 °C 17.4 °C 1015.1 hPa Este 10 km/h 16.7 km/h 60.1% 0.0 mm
18:24 25.7 °C 17.6 °C 1014.9 hPa ENE 10 km/h 16.7 km/h 61% 0.0 mm
18:29 25.6 °C 17.5 °C 1014.9 hPa NE 10 km/h 23.3 km/h 61% 0.0 mm
18:34 25.4 °C 17.6 °C 1015.0 hPa ENE 10 km/h 24.1 km/h 62% 0.0 mm
18:39 25.3 °C 17.7 °C 1015.0 hPa NE 11.4 km/h 23.7 km/h 63% 0.0 mm
18:44 25.3 °C 17.8 °C 1015.0 hPa NE 13.7 km/h 24.5 km/h 63.2% 0.0 mm
18:49 25.3 °C 18 °C 1015.0 hPa NE 13.7 km/h 24.1 km/h 63.9% 0.0 mm
18:54 25.2 °C 17.9 °C 1015.0 hPa ENE 13.7 km/h 19 km/h 64% 0.0 mm
18:59 25.2 °C 17.9 °C 1015.0 hPa NE 12.3 km/h 17.2 km/h 64% 0.0 mm
19:04 25.2 °C 18 °C 1015.2 hPa NE 10.3 km/h 22.2 km/h 64.4% 0.0 mm
19:09 25.1 °C 18 °C 1015.2 hPa NE 10.9 km/h 24.5 km/h 65% 0.0 mm
19:14 25 °C 17.9 °C 1015.2 hPa NE 11.9 km/h 23.7 km/h 65% 0.0 mm
19:19 24.9 °C 17.9 °C 1015.3 hPa NE 12.3 km/h 24.5 km/h 65% 0.0 mm
19:24 24.8 °C 18 °C 1015.3 hPa ENE 13 km/h 19 km/h 65.9% 0.0 mm
19:29 24.8 °C 17.8 °C 1015.3 hPa ENE 12.7 km/h 20.9 km/h 65.1% 0.0 mm
19:34 24.8 °C 17.9 °C 1015.5 hPa ENE 12.2 km/h 22 km/h 65.6% 0.0 mm
19:39 24.8 °C 18 °C 1015.5 hPa ENE 11.5 km/h 22.2 km/h 66% 0.0 mm
19:44 24.8 °C 17.9 °C 1015.5 hPa ENE 10.3 km/h 14.8 km/h 65.8% 0.0 mm
19:49 24.8 °C 17.9 °C 1016.0 hPa NE 9 km/h 13 km/h 65.3% 0.0 mm
19:54 24.8 °C 18 °C 1016.0 hPa ENE 6.9 km/h 17.2 km/h 65.9% 0.0 mm
19:59 24.8 °C 18 °C 1016.0 hPa ENE 8.7 km/h 20.9 km/h 66% 0.0 mm
20:04 24.7 °C 18 °C 1016.0 hPa Este 11.1 km/h 20.9 km/h 66% 0.0 mm
20:09 24.7 °C 17.9 °C 1015.3 hPa ENE 11.5 km/h 24.5 km/h 66% 0.0 mm
20:14 24.6 °C 18 °C 1015.3 hPa NE 12.2 km/h 22.2 km/h 66.6% 0.0 mm
20:19 24.6 °C 18 °C 1015.7 hPa NE 11.2 km/h 13 km/h 67% 0.0 mm
20:24 24.5 °C 17.9 °C 1015.7 hPa ENE 9.5 km/h 13 km/h 67% 0.0 mm
20:29 24.4 °C 17.9 °C 1015.7 hPa NE 8.8 km/h 14.8 km/h 67% 0.0 mm
20:34 24.4 °C 17.9 °C 1015.7 hPa NE 7.6 km/h 12.2 km/h 67% 0.0 mm
20:39 24.4 °C 17.9 °C 1015.4 hPa NE 7.9 km/h 17.2 km/h 66.9% 0.0 mm
20:44 24.4 °C 17.9 °C 1015.4 hPa NE 8.4 km/h 13 km/h 67% 0.0 mm
20:49 24.4 °C 17.9 °C 1015.7 hPa NE 7.8 km/h 10.3 km/h 67% 0.0 mm
20:54 24.4 °C 17.9 °C 1015.7 hPa NE 6.9 km/h 11.1 km/h 67% 0.0 mm
20:59 24.4 °C 17.9 °C 1015.7 hPa NNE 6.7 km/h 10 km/h 67% 0.0 mm
21:04 24.3 °C 18 °C 1015.9 hPa NNE 6.4 km/h 11.9 km/h 67.7% 0.0 mm
21:09 24.3 °C 18.1 °C 1015.9 hPa NE 6.6 km/h 11.1 km/h 68.3% 0.0 mm
21:14 24.3 °C 18.2 °C 1015.9 hPa NNE 6.9 km/h 15.6 km/h 69% 0.0 mm
21:19 24.2 °C 18.2 °C 1016.0 hPa NNE 7.6 km/h 17.2 km/h 69.4% 0.0 mm
21:24 24 °C 18.2 °C 1016.0 hPa NE 8.7 km/h 13 km/h 70% 0.0 mm
21:29 23.9 °C 18.1 °C 1016.0 hPa NNE 9 km/h 18.5 km/h 70% 0.0 mm
21:34 23.9 °C 18.1 °C 1016.3 hPa NNE 9.5 km/h 15.6 km/h 70% 0.0 mm
21:39 23.9 °C 18.2 °C 1016.3 hPa NE 9.2 km/h 16.7 km/h 70.2% 0.0 mm
21:44 23.9 °C 18.2 °C 1016.3 hPa NE 8.7 km/h 14.8 km/h 70.5% 0.0 mm
21:49 23.9 °C 18.1 °C 1016.4 hPa NE 8.3 km/h 15.6 km/h 70% 0.0 mm
21:54 23.9 °C 18.2 °C 1016.4 hPa NE 7.6 km/h 14.8 km/h 70.2% 0.0 mm
21:59 23.9 °C 18.3 °C 1016.4 hPa NE 7.9 km/h 13 km/h 71% 0.0 mm
22:04 23.9 °C 18.3 °C 1016.4 hPa NE 8.4 km/h 10 km/h 71% 0.0 mm
22:09 23.8 °C 18.3 °C 1016.4 hPa NE 7.6 km/h 12.2 km/h 71% 0.0 mm
22:14 23.8 °C 18.2 °C 1016.4 hPa NNE 6.4 km/h 13.7 km/h 71% 0.0 mm
22:19 23.7 °C 18.2 °C 1016.5 hPa NNE 7.2 km/h 13 km/h 71% 0.0 mm
22:24 23.7 °C 18.3 °C 1016.5 hPa NNE 8.4 km/h 11.1 km/h 71.7% 0.0 mm
22:29 23.6 °C 18.3 °C 1016.5 hPa NNE 7.8 km/h 10 km/h 72% 0.0 mm
22:34 23.6 °C 18.3 °C 1016.8 hPa NNE 6.9 km/h 13 km/h 72% 0.0 mm
22:39 23.5 °C 18.2 °C 1016.8 hPa NNE 7.2 km/h 13.7 km/h 72% 0.0 mm
22:44 23.5 °C 18.2 °C 1016.8 hPa NNE 7.6 km/h 13.7 km/h 72.2% 0.0 mm
22:49 23.4 °C 18.3 °C 1016.8 hPa NNE 8 km/h 16.7 km/h 73% 0.0 mm
22:54 23.4 °C 18.3 °C 1016.7 hPa NNE 8.7 km/h 11.1 km/h 73% 0.0 mm
22:59 23.4 °C 18.3 °C 1016.7 hPa NE 7.7 km/h 9.5 km/h 73% 0.0 mm
23:04 23.4 °C 18.3 °C 1016.7 hPa NNE 6.4 km/h 9.3 km/h 73% 0.0 mm
23:09 23.4 °C 18.3 °C 1016.7 hPa NNE 6.2 km/h 11.1 km/h 73% 0.0 mm
23:14 23.4 °C 18.3 °C 1016.7 hPa NE 5.8 km/h 8.4 km/h 73% 0.0 mm
23:19 23.4 °C 18.3 °C 1016.8 hPa NNE 5.8 km/h 11.1 km/h 73% 0.0 mm
23:24 23.4 °C 18.3 °C 1016.8 hPa NNE 5.8 km/h 11.1 km/h 73% 0.0 mm
23:29 23.3 °C 18.2 °C 1016.8 hPa NE 6.2 km/h 11.1 km/h 73% 0.0 mm
23:34 23.3 °C 18.3 °C 1016.8 hPa NE 6.9 km/h 11.1 km/h 73.7% 0.0 mm
23:39 23.2 °C 18.3 °C 1016.7 hPa NNE 6.7 km/h 9.5 km/h 74% 0.0 mm
23:44 23.2 °C 18.3 °C 1016.7 hPa NE 6.4 km/h 11.9 km/h 74% 0.0 mm
23:49 23.1 °C 18.3 °C 1016.7 hPa NE 6.6 km/h 10 km/h 74.3% 0.0 mm
23:54 23.1 °C 18.4 °C 1016.6 hPa NNE 6.9 km/h 9.5 km/h 75% 0.0 mm
23:59 23 °C 18.3 °C 1016.6 hPa NNE 6.5 km/h 8.4 km/h 75% 0.0 mm
Murcia-Puente Tocinos, España
Compliments of Weather Underground - 3.5 mb

La estación de MeteoMurcia.com, publica sus datos en los siguientes proyectos:

Weather Underground PWS IMURCIAP2 Meteoclimatic www.awekas.at

W3Counter
Web Analytics